Time;durP1;ratioP1;P1;durP2;ratioP2;P2;SDS_P1;SDS_P2;PMS_P1;PMS_P2;Temp;Humidity;BMP_temperature;BMP_pressure;BME280_temperature;BME280_humidity;BME280_pressure;Samples;Min_cycle;Max_cycle;Signal;HPM_P1;HPM_P2
2022/02/21 00:00:00;;;;;;;10.40;1.30;;;;;;;6.06;100.00;100001.63;5249615;28;20107;-79
2022/02/21 00:02:31;;;;;;;5.75;0.80;;;;;;;5.93;100.00;100005.56;5285406;28;20106;-78
2022/02/21 00:05:01;;;;;;;12.52;1.42;;;;;;;5.85;100.00;100018.75;5288457;28;20028;-79
2022/02/21 00:07:32;;;;;;;7.03;0.93;;;;;;;5.83;100.00;100017.25;5288808;28;20020;-79
2022/02/21 00:10:03;;;;;;;10.93;2.72;;;;;;;5.86;100.00;100038.22;5253163;28;20027;-79
2022/02/21 00:12:35;;;;;;;5.35;0.90;;;;;;;5.83;100.00;100036.72;5257747;28;20031;-78
2022/02/21 00:15:06;;;;;;;10.23;1.17;;;;;;;5.87;100.00;100032.78;5288327;28;20035;-78
2022/02/21 00:17:36;;;;;;;9.05;1.10;;;;;;;5.87;100.00;100027.44;5288855;28;20023;-79
2022/02/21 00:20:07;;;;;;;8.27;1.45;;;;;;;5.86;100.00;100032.91;5288725;28;20023;-79
2022/02/21 00:22:38;;;;;;;7.60;1.17;;;;;;;5.81;100.00;100043.19;5286318;28;20026;-79
2022/02/21 00:25:10;;;;;;;7.90;1.50;;;;;;;5.77;100.00;100039.16;5270891;28;20023;-79
2022/02/21 00:27:40;;;;;;;8.05;1.50;;;;;;;5.81;100.00;100041.34;5289009;28;20039;-78
2022/02/21 00:30:11;;;;;;;10.02;2.15;;;;;;;5.82;100.00;100055.50;5270292;28;20023;-79
2022/02/21 00:32:41;;;;;;;12.98;2.25;;;;;;;5.76;100.00;100054.28;5288410;28;20030;-79
2022/02/21 00:35:12;;;;;;;17.48;2.92;;;;;;;5.62;100.00;100071.66;5287946;28;20072;-79
2022/02/21 00:37:43;;;;;;;11.05;2.45;;;;;;;5.46;100.00;100068.84;5287742;28;20027;-79
2022/02/21 00:40:13;;;;;;;16.17;3.45;;;;;;;5.23;100.00;100059.66;5287866;28;20137;-78
2022/02/21 00:42:44;;;;;;;19.70;2.45;;;;;;;5.11;100.00;100059.84;5269883;28;20055;-78
2022/02/21 00:45:14;;;;;;;14.70;2.05;;;;;;;5.04;100.00;100063.28;5288475;28;20099;-79
2022/02/21 00:47:45;;;;;;;22.15;2.63;;;;;;;5.03;100.00;100065.09;5295951;28;20416;-78
2022/02/21 00:50:15;;;;;;;19.83;2.28;;;;;;;5.06;100.00;100063.94;5287010;28;20068;-81
2022/02/21 00:52:46;;;;;;;9.05;2.38;;;;;;;5.05;100.00;100063.13;5290274;28;20035;-78
2022/02/21 00:55:16;;;;;;;14.75;1.83;;;;;;;4.99;100.00;100062.88;5273580;28;20057;-79
2022/02/21 00:57:47;;;;;;;19.20;2.10;;;;;;;4.88;100.00;100055.97;5288635;28;20023;-79
2022/02/21 01:00:18;;;;;;;16.77;2.92;;;;;;;4.83;100.00;100075.00;5269709;28;20049;-78
2022/02/21 01:02:48;;;;;;;12.77;1.60;;;;;;;4.82;100.00;100068.03;5288096;28;20375;-78
2022/02/21 01:05:19;;;;;;;11.50;1.83;;;;;;;4.77;100.00;100070.28;5269273;28;20023;-78
2022/02/21 01:07:50;;;;;;;19.77;2.15;;;;;;;4.76;100.00;100076.56;5287951;28;20055;-78
2022/02/21 01:10:20;;;;;;;13.35;2.03;;;;;;;4.79;100.00;100075.44;5280184;28;20110;-78
2022/02/21 01:12:51;;;;;;;11.68;1.80;;;;;;;4.80;100.00;100061.16;5269362;28;20031;-79
2022/02/21 01:15:21;;;;;;;8.57;1.75;;;;;;;4.83;100.00;100082.97;5287498;28;20024;-78
2022/02/21 01:17:52;;;;;;;15.32;2.10;;;;;;;4.81;100.00;100076.97;5287229;28;20023;-78
2022/02/21 01:20:22;;;;;;;9.73;1.35;;;;;;;4.79;100.00;100076.28;5252142;28;20020;-79
2022/02/21 01:22:52;;;;;;;15.93;2.35;;;;;;;4.79;100.00;100086.06;5283898;28;20027;-79
2022/02/21 01:25:23;;;;;;;20.48;2.58;;;;;;;4.81;100.00;100082.28;5285660;28;20484;-79
2022/02/21 01:27:53;;;;;;;26.33;2.38;;;;;;;4.85;100.00;100085.47;5286115;28;20068;-78
2022/02/21 01:30:24;;;;;;;10.77;1.77;;;;;;;4.87;100.00;100094.13;5286416;28;20024;-79
2022/02/21 01:32:54;;;;;;;17.35;2.38;;;;;;;4.98;100.00;100093.13;5286159;28;20438;-77
2022/02/21 01:35:25;;;;;;;9.63;1.80;;;;;;;5.03;100.00;100104.97;5285608;28;20024;-77
2022/02/21 01:37:55;;;;;;;10.52;2.17;;;;;;;5.11;100.00;100101.56;5285673;28;20054;-77
2022/02/21 01:40:27;;;;;;;18.67;2.33;;;;;;;5.15;100.00;100082.50;5285948;28;20039;-77
2022/02/21 01:42:57;;;;;;;24.38;4.47;;;;;;;5.22;100.00;100090.72;5285727;28;20019;-77
2022/02/21 01:45:28;;;;;;;23.58;2.92;;;;;;;5.26;100.00;100121.34;5285424;28;20032;-77
2022/02/21 01:47:58;;;;;;;15.70;1.85;;;;;;;5.33;100.00;100124.25;5285617;28;20012;-77
2022/02/21 01:50:29;;;;;;;6.70;1.63;;;;;;;5.38;100.00;100128.13;5286177;28;20106;-78
2022/02/21 01:52:59;;;;;;;18.15;2.17;;;;;;;5.44;100.00;100132.84;5267769;28;20024;-77
2022/02/21 01:55:30;;;;;;;11.93;1.83;;;;;;;5.51;100.00;100133.06;5285379;28;20471;-77
2022/02/21 01:58:00;;;;;;;13.88;2.35;;;;;;;5.54;100.00;100118.66;5285971;28;20036;-77
2022/02/21 02:00:31;;;;;;;11.35;1.73;;;;;;;5.54;100.00;100115.97;5285386;28;20027;-77
2022/02/21 02:03:02;;;;;;;9.38;1.70;;;;;;;5.52;100.00;100125.91;5285806;28;20035;-77
2022/02/21 02:05:32;;;;;;;14.77;1.60;;;;;;;5.60;100.00;100137.50;5285470;28;20031;-77
2022/02/21 02:08:03;;;;;;;11.80;1.58;;;;;;;5.54;100.00;100162.03;5285878;28;20076;-77
2022/02/21 02:10:34;;;;;;;12.90;1.70;;;;;;;5.34;100.00;100116.13;5285619;28;20035;-77
2022/02/21 02:13:05;;;;;;;15.75;2.45;;;;;;;5.15;100.00;100130.38;5285813;28;20016;-77
2022/02/21 02:15:35;;;;;;;14.77;1.70;;;;;;;4.97;100.00;100132.16;5285579;28;20639;-77
2022/02/21 02:18:07;;;;;;;9.23;1.42;;;;;;;4.84;100.00;100129.00;5285835;28;20020;-77
2022/02/21 02:20:37;;;;;;;12.43;2.25;;;;;;;4.78;100.00;100126.94;5272126;28;20566;-77
2022/02/21 02:23:15;;;;;;;11.90;2.35;;;;;;;4.83;100.00;100122.84;5266510;28;20363;-77
2022/02/21 02:25:46;;;;;;;20.88;2.85;;;;;;;4.99;100.00;100142.63;5285514;28;20022;-78
2022/02/21 02:28:16;;;;;;;7.88;1.58;;;;;;;5.08;100.00;100134.63;5286527;28;20098;-77
2022/02/21 02:30:47;;;;;;;21.38;2.10;;;;;;;5.11;100.00;100128.97;5285875;28;20374;-77
2022/02/21 02:33:17;;;;;;;16.67;2.10;;;;;;;5.09;100.00;100144.25;5285624;28;20039;-77
2022/02/21 02:35:48;;;;;;;8.73;1.52;;;;;;;5.06;100.00;100128.59;5285394;28;20099;-77
2022/02/21 02:38:18;;;;;;;19.85;1.88;;;;;;;5.08;100.00;100129.28;5285614;28;20047;-76
2022/02/21 02:40:49;;;;;;;21.92;2.80;;;;;;;5.04;100.00;100151.84;5285633;28;20389;-77
2022/02/21 02:43:20;;;;;;;17.17;3.05;;;;;;;5.14;100.00;100149.13;5285880;28;20020;-77
2022/02/21 02:45:50;;;;;;;13.23;1.73;;;;;;;5.11;100.00;100179.50;5284979;28;20028;-77
2022/02/21 02:48:21;;;;;;;10.85;1.75;;;;;;;5.12;100.00;100161.72;5285440;28;20535;-76
2022/02/21 02:50:52;;;;;;;10.95;1.98;;;;;;;5.21;100.00;100160.84;5285231;28;20513;-77
2022/02/21 02:53:23;;;;;;;10.48;1.65;;;;;;;5.22;100.00;100169.66;5285405;28;20023;-77
2022/02/21 02:55:54;;;;;;;19.35;2.28;;;;;;;5.20;100.00;100162.66;5284886;28;20367;-76
2022/02/21 02:58:26;;;;;;;18.13;2.47;;;;;;;5.23;100.00;100169.53;5285251;28;20131;-77
2022/02/21 03:00:57;;;;;;;16.33;2.30;;;;;;;5.22;100.00;100173.19;5287348;28;20027;-77
2022/02/21 03:03:27;;;;;;;10.50;1.80;;;;;;;5.18;100.00;100155.84;5289515;28;20467;-77
2022/02/21 03:05:58;;;;;;;13.93;1.73;;;;;;;5.16;100.00;100163.94;5288730;28;20027;-77
2022/02/21 03:08:28;;;;;;;12.38;1.92;;;;;;;5.17;100.00;100175.41;5289242;28;20018;-77
2022/02/21 03:10:59;;;;;;;15.45;1.85;;;;;;;5.14;100.00;100181.88;5280857;28;20093;-77
2022/02/21 03:13:30;;;;;;;17.38;2.28;;;;;;;5.14;100.00;100181.03;5269484;28;20491;-76
2022/02/21 03:16:01;;;;;;;25.20;3.20;;;;;;;5.14;100.00;100181.03;5279055;28;20035;-77
2022/02/21 03:18:31;;;;;;;10.25;1.58;;;;;;;5.13;100.00;100179.38;5284554;28;20363;-76
2022/02/21 03:21:02;;;;;;;16.85;2.05;;;;;;;5.07;100.00;100167.50;5288658;28;20028;-77
2022/02/21 03:23:32;;;;;;;14.70;1.90;;;;;;;5.05;100.00;100160.66;5286341;28;20027;-76
2022/02/21 03:26:03;;;;;;;6.40;1.42;;;;;;;5.00;100.00;100131.84;5288285;28;20051;-77
2022/02/21 03:28:33;;;;;;;17.35;2.22;;;;;;;4.98;100.00;100170.22;5288736;28;20090;-77
2022/02/21 03:31:04;;;;;;;10.40;1.83;;;;;;;4.93;100.00;100176.78;5288558;28;20030;-77
2022/02/21 03:33:35;;;;;;;8.98;2.00;;;;;;;4.85;100.00;100184.66;5288797;28;20033;-77
2022/02/21 03:36:06;;;;;;;14.23;2.53;;;;;;;4.81;100.00;100172.63;5288568;28;20131;-78
2022/02/21 03:38:37;;;;;;;20.13;2.65;;;;;;;4.79;100.00;100174.59;5288306;28;20502;-78
2022/02/21 03:41:07;;;;;;;13.50;2.13;;;;;;;4.77;100.00;100186.34;5272216;28;20028;-77
2022/02/21 03:43:38;;;;;;;12.77;2.05;;;;;;;4.72;100.00;100194.78;5288190;28;20020;-77
2022/02/21 03:46:08;;;;;;;12.80;2.30;;;;;;;4.74;100.00;100173.38;5288007;28;20028;-77
2022/02/21 03:48:39;;;;;;;13.75;1.90;;;;;;;4.77;100.00;100196.97;5288472;28;20034;-77
2022/02/21 03:51:09;;;;;;;11.98;1.88;;;;;;;4.82;100.00;100192.06;5287934;28;20030;-77
2022/02/21 03:53:40;;;;;;;25.85;2.83;;;;;;;4.83;100.00;100170.69;5288187;28;20023;-77
2022/02/21 03:56:10;;;;;;;16.77;2.47;;;;;;;4.83;100.00;100191.94;5287776;28;20216;-77
2022/02/21 03:58:43;;;;;;;19.48;2.63;;;;;;;4.81;100.00;100188.56;5287849;28;20027;-77
2022/02/21 04:01:13;;;;;;;27.75;2.70;;;;;;;4.88;100.00;100186.19;5287711;28;20509;-78
2022/02/21 04:03:44;;;;;;;13.63;2.28;;;;;;;4.87;100.00;100190.69;5269711;28;20028;-77
2022/02/21 04:06:14;;;;;;;10.43;2.17;;;;;;;4.86;100.00;100196.94;5287715;28;20031;-76
2022/02/21 04:08:45;;;;;;;10.68;2.13;;;;;;;4.84;100.00;100201.59;5285704;28;20041;-78
2022/02/21 04:11:16;;;;;;;17.92;2.78;;;;;;;4.81;100.00;100196.53;5283821;28;20050;-77
2022/02/21 04:13:46;;;;;;;20.60;2.38;;;;;;;4.85;100.00;100174.00;5287623;28;20107;-79
2022/02/21 04:16:17;;;;;;;21.45;2.95;;;;;;;4.87;100.00;100185.38;5287700;28;20019;-77
2022/02/21 04:18:47;;;;;;;22.48;2.38;;;;;;;4.87;100.00;100195.13;5290535;28;20027;-78
2022/02/21 04:21:18;;;;;;;13.18;3.00;;;;;;;4.88;100.00;100197.66;5290797;28;20033;-78
2022/02/21 04:23:48;;;;;;;21.98;2.55;;;;;;;4.89;100.00;100186.03;5271344;28;20035;-78
2022/02/21 04:26:19;;;;;;;16.83;3.20;;;;;;;4.90;100.00;100184.22;5288947;28;20115;-78
2022/02/21 04:28:49;;;;;;;28.33;3.40;;;;;;;4.91;100.00;100170.78;5289138;28;20360;-79
2022/02/21 04:31:20;;;;;;;23.15;3.13;;;;;;;4.90;100.00;100190.38;5287385;28;20027;-78
2022/02/21 04:33:50;;;;;;;17.45;2.65;;;;;;;4.85;100.00;100183.81;5287429;28;20046;-78
2022/02/21 04:36:21;;;;;;;20.70;4.88;;;;;;;4.85;100.00;100197.94;5287557;28;20475;-78
2022/02/21 04:38:52;;;;;;;20.33;2.35;;;;;;;4.85;100.00;100197.09;5287826;28;20028;-78
2022/02/21 04:41:22;;;;;;;17.25;2.47;;;;;;;4.83;100.00;100199.09;5287443;28;20034;-78
2022/02/21 04:43:53;;;;;;;16.02;1.92;;;;;;;4.83;100.00;100209.72;5287167;28;20020;-77
2022/02/21 04:46:24;;;;;;;18.45;3.00;;;;;;;4.80;100.00;100202.00;5287008;28;20027;-77
2022/02/21 04:48:54;;;;;;;28.15;7.30;;;;;;;4.79;100.00;100193.22;5287063;28;20041;-77
2022/02/21 04:51:25;;;;;;;30.63;7.63;;;;;;;4.75;100.00;100201.63;5286803;28;20033;-77
2022/02/21 04:53:56;;;;;;;25.65;6.28;;;;;;;4.68;100.00;100196.06;5286933;28;20028;-77
2022/02/21 04:56:26;;;;;;;24.60;6.50;;;;;;;4.67;100.00;100205.00;5273336;28;20584;-77
2022/02/21 04:58:57;;;;;;;16.88;6.65;;;;;;;4.71;100.00;100205.53;5286629;28;20030;-77
2022/02/21 05:01:27;;;;;;;18.35;4.53;;;;;;;4.67;100.00;100199.69;5286713;28;20023;-77
2022/02/21 05:03:58;;;;;;;31.73;7.57;;;;;;;4.64;100.00;100192.00;5286518;28;20102;-78
2022/02/21 05:06:28;;;;;;;22.23;6.55;;;;;;;4.57;100.00;100190.91;5286790;28;20452;-77
2022/02/21 05:08:59;;;;;;;37.47;10.52;;;;;;;4.51;100.00;100204.75;5282112;28;20540;-78
2022/02/21 05:11:29;;;;;;;20.65;3.13;;;;;;;4.55;100.00;100211.44;5284986;28;20032;-78
2022/02/21 05:13:59;;;;;;;20.33;4.03;;;;;;;4.58;100.00;100200.56;5268596;28;20011;-77
2022/02/21 05:16:30;;;;;;;27.50;4.68;;;;;;;4.58;100.00;100204.03;5286419;28;20655;-77
2022/02/21 05:19:02;;;;;;;17.75;3.72;;;;;;;4.58;100.00;100208.53;5286653;28;20034;-77
2022/02/21 05:21:32;;;;;;;30.80;3.83;;;;;;;4.62;100.00;100207.25;5268257;28;20031;-77
2022/02/21 05:24:03;;;;;;;77.68;32.03;;;;;;;4.61;100.00;100213.53;5283814;28;20080;-76
2022/02/21 05:26:34;;;;;;;21.58;5.05;;;;;;;4.62;100.00;100196.63;5286397;28;20094;-78
2022/02/21 05:29:04;;;;;;;14.63;3.83;;;;;;;4.63;100.00;100188.50;5268302;28;20024;-77
2022/02/21 05:31:35;;;;;;;19.05;3.97;;;;;;;4.64;100.00;100199.97;5286083;28;20026;-77
2022/02/21 05:34:05;;;;;;;19.20;2.90;;;;;;;4.63;100.00;100192.97;5286275;28;20039;-77
2022/02/21 05:36:36;;;;;;;13.00;2.13;;;;;;;4.61;100.00;100206.38;5286275;28;20536;-78
2022/02/21 05:39:06;;;;;;;19.23;3.78;;;;;;;4.59;100.00;100202.22;5268147;28;20031;-78
2022/02/21 05:41:37;;;;;;;13.80;2.00;;;;;;;4.59;100.00;100202.22;5286047;28;20023;-77
2022/02/21 05:44:07;;;;;;;19.55;3.08;;;;;;;4.58;100.00;100198.72;5286082;28;20020;-77
2022/02/21 05:46:38;;;;;;;151.18;54.35;;;;;;;4.54;100.00;100194.69;5267751;28;20024;-77
2022/02/21 05:49:09;;;;;;;95.85;26.15;;;;;;;4.47;100.00;100198.91;5267934;28;20027;-77
2022/02/21 05:51:40;;;;;;;37.70;6.40;;;;;;;4.41;100.00;100184.34;5285914;28;20055;-77
2022/02/21 05:54:11;;;;;;;83.68;20.85;;;;;;;4.35;100.00;100194.72;5285905;28;20525;-78
2022/02/21 05:56:41;;;;;;;64.25;18.95;;;;;;;4.30;100.00;100202.25;5286959;28;20026;-78
2022/02/21 05:59:12;;;;;;;25.95;7.72;;;;;;;4.23;100.00;100202.00;5297363;28;20019;-81
2022/02/21 06:01:42;;;;;;;26.50;7.63;;;;;;;4.18;100.00;100198.94;5269833;28;20077;-77
2022/02/21 06:04:13;;;;;;;24.70;5.55;;;;;;;4.16;100.00;100203.53;5285492;28;20065;-77
2022/02/21 06:06:45;;;;;;;20.25;3.97;;;;;;;4.15;100.00;100201.84;5286159;28;20031;-77
2022/02/21 06:09:16;;;;;;;22.85;4.53;;;;;;;4.16;100.00;100208.84;5278682;28;20012;-77
2022/02/21 06:11:47;;;;;;;14.23;2.45;;;;;;;4.22;100.00;100207.44;5278639;28;20054;-81
2022/02/21 06:14:17;;;;;;;15.25;2.65;;;;;;;4.20;100.00;100193.47;5254612;28;20084;-78
2022/02/21 06:16:47;;;;;;;9.65;2.40;;;;;;;4.15;100.00;100200.03;5285448;28;20436;-78
2022/02/21 06:19:19;;;;;;;9.60;1.98;;;;;;;4.09;100.00;100189.16;5285656;28;20028;-80
2022/02/21 06:21:49;;;;;;;10.70;2.22;;;;;;;4.13;100.00;100206.47;5266550;28;20031;-80
2022/02/21 06:24:20;;;;;;;11.60;2.25;;;;;;;4.04;100.00;100216.09;5284422;28;20044;-78
2022/02/21 06:26:50;;;;;;;16.52;2.22;;;;;;;4.02;100.00;100201.31;5285550;28;20153;-76
2022/02/21 06:29:21;;;;;;;9.52;1.65;;;;;;;3.96;100.00;100201.84;5267318;28;20016;-76
2022/02/21 06:31:51;;;;;;;52.95;15.68;;;;;;;3.94;100.00;100188.72;5285466;28;20020;-77
2022/02/21 06:34:22;;;;;;;16.08;5.82;;;;;;;3.93;100.00;100195.03;5285321;28;20038;-77
2022/02/21 06:36:53;;;;;;;18.73;3.88;;;;;;;3.91;100.00;100191.66;5290315;28;20023;-78
2022/02/21 06:39:24;;;;;;;10.98;3.72;;;;;;;3.90;100.00;100214.69;5289834;28;20035;-77
2022/02/21 06:41:54;;;;;;;12.73;2.67;;;;;;;3.86;100.00;100215.09;5289889;28;20039;-77
2022/02/21 06:44:24;;;;;;;10.13;3.78;;;;;;;3.79;100.00;100200.72;5289597;28;20027;-78
2022/02/21 06:46:55;;;;;;;21.08;7.55;;;;;;;3.76;100.00;100204.50;5289565;28;20023;-78
2022/02/21 06:49:25;;;;;;;45.55;10.02;;;;;;;3.74;100.00;100210.91;5289549;28;20024;-78
2022/02/21 06:51:56;;;;;;;40.65;11.20;;;;;;;3.73;100.00;100202.13;5289347;28;20019;-77
2022/02/21 06:54:26;;;;;;;65.30;18.58;;;;;;;3.74;100.00;100214.41;5288999;28;20031;-77
2022/02/21 06:56:57;;;;;;;34.08;9.60;;;;;;;3.72;100.00;100216.38;5289434;28;20106;-77
2022/02/21 06:59:27;;;;;;;16.00;3.53;;;;;;;3.75;100.00;100224.03;5289125;28;20026;-77
2022/02/21 07:01:58;;;;;;;56.75;20.98;;;;;;;3.75;100.00;100218.72;5289113;28;20027;-80
2022/02/21 07:04:29;;;;;;;14.38;4.15;;;;;;;3.78;100.00;100204.38;5270962;28;20027;-77
2022/02/21 07:06:59;;;;;;;20.95;4.32;;;;;;;3.82;100.00;100203.97;5289174;28;20701;-77
2022/02/21 07:09:29;;;;;;;14.30;4.20;;;;;;;3.88;100.00;100210.53;5282093;28;20060;-78
2022/02/21 07:12:00;;;;;;;14.98;2.78;;;;;;;3.92;100.00;100203.13;5288929;28;20031;-78
2022/02/21 07:14:30;;;;;;;10.35;3.83;;;;;;;3.97;100.00;100195.59;5288951;28;20019;-78
2022/02/21 07:17:01;;;;;;;17.90;4.28;;;;;;;4.01;100.00;100204.91;5288819;28;20019;-78
2022/02/21 07:19:33;;;;;;;20.58;2.33;;;;;;;4.07;100.00;100191.13;5270726;28;20482;-78
2022/02/21 07:22:04;;;;;;;8.68;1.75;;;;;;;4.25;100.00;100197.38;5286750;28;20646;-78
2022/02/21 07:24:34;;;;;;;46.70;13.45;;;;;;;4.29;100.00;100205.91;5292379;28;20118;-77
2022/02/21 07:27:04;;;;;;;12.10;3.25;;;;;;;4.37;100.00;100203.38;5283794;28;20448;-77
2022/02/21 07:29:36;;;;;;;14.90;5.97;;;;;;;4.42;100.00;100201.16;5268007;28;20757;-78
2022/02/21 07:32:07;;;;;;;17.35;4.25;;;;;;;4.66;100.00;100182.06;5283062;28;20383;-77
2022/02/21 07:34:37;;;;;;;15.55;3.92;;;;;;;4.75;100.00;100183.00;5286372;28;20055;-77
2022/02/21 07:37:08;;;;;;;15.65;2.00;;;;;;;4.93;100.00;100191.91;5289853;28;20138;-77
2022/02/21 07:39:39;;;;;;;16.30;2.13;;;;;;;4.98;100.00;100183.50;5284750;28;20040;-77
2022/02/21 07:42:09;;;;;;;11.57;3.50;;;;;;;4.90;100.00;100176.25;5268005;28;20026;-77
2022/02/21 07:44:39;;;;;;;18.17;2.13;;;;;;;4.94;100.00;100170.50;5266784;28;20039;-77
2022/02/21 07:47:10;;;;;;;10.68;1.77;;;;;;;5.02;100.00;100182.19;5266565;28;20024;-77
2022/02/21 07:49:40;;;;;;;15.02;2.95;;;;;;;4.99;100.00;100175.38;5268500;28;20024;-78
2022/02/21 07:52:11;;;;;;;15.55;1.67;;;;;;;4.95;100.00;100184.63;5287926;28;20020;-77
2022/02/21 07:54:42;;;;;;;16.77;1.67;;;;;;;5.04;100.00;100166.97;5287613;28;20019;-77
2022/02/21 07:57:13;;;;;;;30.20;8.70;;;;;;;5.24;100.00;100154.41;5287944;28;20058;-76
2022/02/21 07:59:43;;;;;;;16.55;1.98;;;;;;;5.10;100.00;100164.53;5279235;28;20429;-76
2022/02/21 08:02:14;;;;;;;8.15;1.67;;;;;;;5.22;100.00;100162.53;5266682;28;20118;-76
2022/02/21 08:04:44;;;;;;;14.90;5.35;;;;;;;5.37;100.00;100169.03;5251689;28;20047;-76
2022/02/21 08:07:15;;;;;;;9.40;1.85;;;;;;;5.29;100.00;100162.78;5288685;28;20034;-76
2022/02/21 08:09:45;;;;;;;14.65;1.98;;;;;;;5.21;100.00;100166.16;5277075;28;20020;-76
2022/02/21 08:12:16;;;;;;;17.08;2.30;;;;;;;5.46;100.00;100168.09;5285612;28;20027;-76
2022/02/21 08:14:47;;;;;;;15.77;2.03;;;;;;;6.02;100.00;100142.22;5287631;28;20023;-76
2022/02/21 08:17:17;;;;;;;7.57;2.00;;;;;;;6.32;100.00;100142.78;5287878;28;20110;-76
2022/02/21 08:19:47;;;;;;;16.33;2.42;;;;;;;6.61;100.00;100145.97;5287487;28;20055;-76
2022/02/21 08:22:18;;;;;;;12.93;2.75;;;;;;;6.76;100.00;100138.22;5285473;28;20016;-76
2022/02/21 08:24:48;;;;;;;10.05;1.83;;;;;;;6.95;100.00;100139.81;5287664;28;20065;-76
2022/02/21 08:27:19;;;;;;;8.95;1.58;;;;;;;6.65;100.00;100135.84;5270036;28;20107;-76
2022/02/21 08:29:49;;;;;;;20.05;4.38;;;;;;;6.37;100.00;100138.66;5269461;28;20020;-76
2022/02/21 08:32:20;;;;;;;14.75;2.47;;;;;;;5.95;100.00;100128.69;5287716;28;20063;-76
2022/02/21 08:34:50;;;;;;;12.10;3.00;;;;;;;5.82;100.00;100136.19;5287526;28;20043;-76
2022/02/21 08:37:21;;;;;;;17.42;3.35;;;;;;;5.63;100.00;100128.38;5287724;28;20024;-76
2022/02/21 08:39:51;;;;;;;36.67;10.43;;;;;;;5.59;100.00;100133.16;5269060;28;20096;-76
2022/02/21 08:42:22;;;;;;;18.48;4.70;;;;;;;5.58;100.00;100135.97;5287415;28;20020;-76
2022/02/21 08:44:52;;;;;;;22.02;6.32;;;;;;;5.61;100.00;100136.50;5287011;28;20043;-76
2022/02/21 08:47:23;;;;;;;22.17;4.22;;;;;;;5.66;100.00;100125.41;5287187;28;20038;-76
2022/02/21 08:49:55;;;;;;;24.20;4.15;;;;;;;5.65;100.00;100142.38;5287166;28;20080;-76
2022/02/21 08:52:25;;;;;;;20.92;4.90;;;;;;;5.56;100.00;100141.44;5293434;28;20028;-78
2022/02/21 08:54:56;;;;;;;20.75;5.13;;;;;;;5.51;100.00;100135.72;5287187;28;20027;-77
2022/02/21 08:57:27;;;;;;;15.80;2.55;;;;;;;5.39;100.00;100124.47;5286448;28;20028;-77
2022/02/21 09:00:01;;;;;;;17.23;5.50;;;;;;;5.15;100.00;100137.50;5291703;28;20034;-77
2022/02/21 09:02:32;;;;;;;18.15;3.38;;;;;;;4.94;100.00;100138.59;5292548;28;20487;-77
2022/02/21 09:05:02;;;;;;;20.92;3.17;;;;;;;4.87;100.00;100128.69;5288668;28;20023;-78
2022/02/21 09:07:33;;;;;;;15.32;3.28;;;;;;;4.78;100.00;100125.09;5286953;28;20106;-78
2022/02/21 09:10:04;;;;;;;18.70;2.95;;;;;;;4.70;100.00;100124.16;5255215;28;20031;-78
2022/02/21 09:12:35;;;;;;;13.18;2.00;;;;;;;4.63;100.00;100115.94;5273224;28;20042;-78
2022/02/21 09:15:06;;;;;;;17.70;6.72;;;;;;;4.71;100.00;100093.94;5286294;28;20024;-78
2022/02/21 09:17:37;;;;;;;25.40;3.30;;;;;;;4.68;100.00;100100.41;5286630;28;20038;-78
2022/02/21 09:20:08;;;;;;;17.45;3.47;;;;;;;4.71;100.00;100091.28;5267996;28;20781;-78
2022/02/21 09:22:38;;;;;;;13.90;2.15;;;;;;;4.75;100.00;100092.66;5284123;28;20382;-77
2022/02/21 09:25:09;;;;;;;140.45;51.63;;;;;;;4.80;100.00;100091.22;5286111;28;20073;-78
2022/02/21 09:27:41;;;;;;;19.60;4.05;;;;;;;4.87;100.00;100065.75;5286056;28;20024;-77
2022/02/21 09:30:12;;;;;;;23.08;7.25;;;;;;;5.05;100.00;100075.56;5286137;28;20020;-77
2022/02/21 09:32:42;;;;;;;20.95;4.43;;;;;;;5.12;100.00;100052.72;5286151;28;20480;-77
2022/02/21 09:35:13;;;;;;;25.02;4.00;;;;;;;5.21;100.00;100059.78;5286286;28;20072;-80
2022/02/21 09:37:43;;;;;;;19.65;3.08;;;;;;;5.21;100.00;100051.81;5286420;28;20028;-77
2022/02/21 09:40:14;;;;;;;15.52;3.00;;;;;;;5.29;100.00;100051.06;5285967;28;20027;-77
2022/02/21 09:42:46;;;;;;;21.70;4.28;;;;;;;5.35;100.00;100043.31;5285992;28;20464;-78
2022/02/21 09:45:18;;;;;;;18.45;2.90;;;;;;;5.42;100.00;100040.88;5285961;28;20035;-78
2022/02/21 09:47:51;;;;;;;15.32;3.42;;;;;;;5.52;100.00;100043.44;5285656;28;20039;-77
2022/02/21 09:50:25;;;;;;;16.05;3.85;;;;;;;5.51;100.00;100020.50;5285884;28;20019;-77
2022/02/21 09:53:00;;;;;;;11.40;2.72;;;;;;;5.58;100.00;100045.50;5285832;28;20023;-78
2022/02/21 09:55:32;;;;;;;21.65;2.92;;;;;;;5.74;100.00;100031.50;5285549;28;20020;-78
2022/02/21 09:58:03;;;;;;;18.08;2.60;;;;;;;5.81;100.00;100036.03;5254370;28;20023;-77
2022/02/21 10:00:34;;;;;;;24.40;3.55;;;;;;;5.82;100.00;100027.06;5285667;28;20023;-77
2022/02/21 10:03:05;;;;;;;25.75;4.20;;;;;;;5.75;100.00;100023.34;5285674;28;20077;-78
2022/02/21 10:05:35;;;;;;;24.48;2.90;;;;;;;5.67;100.00;100000.19;5285431;28;20027;-78
2022/02/21 10:10:53;;;;;;;54.70;20.67;;;;;;;5.76;100.00;100001.06;5271803;28;20027;-78
2022/02/21 10:13:23;;;;;;;25.55;6.20;;;;;;;5.89;100.00;99982.88;5285716;28;20557;-78
2022/02/21 10:16:00;;;;;;;26.02;4.18;;;;;;;5.89;100.00;99985.53;5285325;28;20016;-78
2022/02/21 10:18:30;;;;;;;21.38;3.88;;;;;;;5.91;100.00;99986.22;5285304;28;20102;-78
2022/02/21 10:21:03;;;;;;;14.90;4.20;;;;;;;6.05;100.00;99968.00;5285549;28;20019;-78
2022/02/21 10:23:35;;;;;;;30.83;4.60;;;;;;;6.23;100.00;99992.75;5283022;28;20039;-78
2022/02/21 10:26:07;;;;;;;23.13;4.80;;;;;;;6.38;100.00;99977.00;5267228;28;20020;-78
2022/02/21 10:28:40;;;;;;;32.15;6.13;;;;;;;6.62;100.00;99962.91;5285363;28;20512;-78
2022/02/21 10:31:29;;;;;;;30.20;4.55;;;;;;;6.69;100.00;99955.94;5285483;28;20367;-78
2022/02/21 10:34:03;;;;;;;26.88;5.63;;;;;;;6.70;100.00;99958.44;5285280;28;20054;-78
2022/02/21 10:36:45;;;;;;;26.10;4.45;;;;;;;6.73;100.00;99943.97;5285338;28;20493;-78
2022/02/21 10:39:18;;;;;;;26.08;4.57;;;;;;;6.74;100.00;99957.13;5285088;28;20016;-78
2022/02/21 10:41:52;;;;;;;29.98;4.63;;;;;;;6.57;100.00;99944.72;5285526;28;20019;-78
2022/02/21 10:44:41;;;;;;;27.00;3.33;;;;;;;6.45;100.00;99927.38;5292639;28;20436;-78
2022/02/21 10:47:15;;;;;;;26.25;4.88;;;;;;;6.28;100.00;99969.13;5267667;28;20058;-78
2022/02/21 10:50:18;;;;;;;27.85;4.43;;;;;;;6.21;100.00;99986.72;5285728;28;20541;-79
2022/02/21 10:52:48;;;;;;;23.13;3.80;;;;;;;6.18;100.00;99966.59;5282942;28;20027;-78
2022/02/21 10:55:19;;;;;;;28.52;4.15;;;;;;;6.12;100.00;100027.63;5285272;28;20390;-78
2022/02/21 10:57:49;;;;;;;36.08;4.00;;;;;;;6.02;100.00;100022.38;5285360;28;20106;-78
2022/02/21 11:00:20;;;;;;;49.60;16.98;;;;;;;5.95;100.00;100026.69;5284729;28;20052;-78
2022/02/21 11:02:50;;;;;;;26.52;5.97;;;;;;;5.84;100.00;100033.06;5285249;28;20035;-78
2022/02/21 11:05:21;;;;;;;32.47;7.63;;;;;;;5.80;100.00;100018.41;5284863;28;20088;-78
2022/02/21 11:07:53;;;;;;;31.17;5.75;;;;;;;5.77;100.00;100033.84;5285045;28;20066;-78
2022/02/21 11:10:25;;;;;;;28.15;4.93;;;;;;;5.75;100.00;100038.50;5271133;28;20563;-79
2022/02/21 11:12:55;;;;;;;22.13;4.05;;;;;;;5.68;100.00;100052.41;5284781;28;20035;-78
2022/02/21 11:15:28;;;;;;;23.33;3.83;;;;;;;5.61;100.00;100045.19;5284778;28;20621;-78
2022/02/21 11:18:00;;;;;;;21.05;3.33;;;;;;;5.63;100.00;100037.91;5285207;28;20023;-78
2022/02/21 11:20:31;;;;;;;48.95;5.80;;;;;;;5.57;100.00;100044.69;5285093;28;20024;-78
2022/02/21 11:23:02;;;;;;;23.63;4.00;;;;;;;5.55;100.00;100038.66;5286818;28;20055;-78
2022/02/21 11:25:41;;;;;;;37.72;4.35;;;;;;;5.50;100.00;100040.94;5289885;28;20509;-78
2022/02/21 11:28:49;;;;;;;29.15;6.53;;;;;;;5.44;100.00;100033.59;5292066;28;20079;-78
2022/02/21 11:31:28;;;;;;;29.30;5.35;;;;;;;5.40;100.00;100043.69;5291415;28;20027;-78
2022/02/21 11:34:03;;;;;;;45.63;7.05;;;;;;;5.40;100.00;100049.00;5291567;28;20035;-78
2022/02/21 11:36:34;;;;;;;42.13;7.70;;;;;;;5.43;100.00;100050.53;5291375;28;20023;-78